»·PEaware :: N1927H CYCG-KSEA

N1927H :: CYCG-KSEA

FLIGHT INFORMATION

Flight Status: Arrived
Operator: Privately registered:
United States
More flights under this callsign
Pilot: Wayne R. (17783)
Aircraft: PIPER PA-28R-201 ARROW
(P28R)
More flights by this aircraft type
Origin: CYCG Castlegar
Canada
Destination: KSEA Seattle-Tacoma Intl
United States
More flights between these airports :: More routes between these airports
Route: +KLSEY T328 KRUZR T328 ROZSE T328 BOCAT NUW PAE
File this flight plan on PilotEdge
Remarks:
Altitude:
(Current/Filed)
10,000ft
Speed:
(Current/Filed)
135kts
Departed: 13-Dec-20 05:40 PM
Arrived: 13-Dec-20 08:15 PM
Distance/Time
Traveled:
217nm/2:35
Distance/Time
To Go:
Arrived

Flight Plot

Page will automatically refresh every two minutes.

Flight plan parsing failed; only flown route is shown


Map Options




Map Legend


Flown Route
Filed Route
Departure Airport
Arrival Airport
Navaid (VOR, NDB)
Fix

Horizontal Profiles

Position Reports

Time Latitude Longitude Heading Altitude Ground
Speed
13-Dec-20 17:30 49.296918 -117.635127 77 1626ft 0kts
13-Dec-20 17:31 49.296918 -117.635127 77 1626ft 0kts
13-Dec-20 17:32 49.296918 -117.635127 77 1626ft 0kts
13-Dec-20 17:33 49.296918 -117.635127 77 1626ft 0kts
13-Dec-20 17:34 49.296918 -117.635127 77 1626ft 0kts
13-Dec-20 17:35 49.296918 -117.635127 77 1626ft 0kts
13-Dec-20 17:36 49.296918 -117.635127 77 1626ft 0kts
13-Dec-20 17:37 49.296465 -117.633723 95 1626ft 0kts
13-Dec-20 17:38 49.300899 -117.633868 348 1626ft 22kts
13-Dec-20 17:39 49.294942 -117.632371 164 1651ft 77kts
13-Dec-20 17:40 49.270927 -117.638336 201 2201ft 101kts
13-Dec-20 17:41 49.244642 -117.660708 209 2810ft 114kts
13-Dec-20 17:42 49.216425 -117.685173 209 3416ft 117kts
13-Dec-20 17:43 49.187967 -117.709493 209 4017ft 117kts
13-Dec-20 17:44 49.158858 -117.731081 205 4618ft 116kts
13-Dec-20 17:46 49.129683 -117.751325 205 5221ft 114kts
13-Dec-20 17:47 49.100175 -117.769797 197 5701ft 114kts
13-Dec-20 17:48 49.071077 -117.781949 197 6142ft 98kts
13-Dec-20 17:49 49.046585 -117.790947 198 6304ft 86kts
13-Dec-20 17:50 49.019590 -117.790691 144 5847ft 124kts
13-Dec-20 17:51 48.993707 -117.783424 197 5774ft 91kts
13-Dec-20 17:52 48.968326 -117.794674 216 4966ft 130kts
13-Dec-20 17:53 48.927773 -117.794774 194 3719ft 148kts
13-Dec-20 17:54 48.894132 -117.821510 220 3284ft 126kts
13-Dec-20 17:55 48.872907 -117.861755 237 2979ft 121kts
13-Dec-20 17:56 48.856414 -117.893271 219 2744ft 123kts
13-Dec-20 17:57 48.829495 -117.926232 219 2445ft 125kts
13-Dec-20 17:58 48.813556 -117.969516 272 2144ft 125kts
13-Dec-20 17:59 48.804541 -118.015897 192 1983ft 121kts
13-Dec-20 18:00 48.773518 -118.025483 222 1955ft 123kts
13-Dec-20 18:01 48.745868 -118.053125 173 2018ft 122kts
13-Dec-20 18:01 48.719143 -118.038333 161 2068ft 128kts
13-Dec-20 18:03 48.680274 -118.041356 230 2281ft 117kts
13-Dec-20 18:03 48.663085 -118.069148 203 2893ft 105kts
13-Dec-20 18:05 48.632567 -118.087686 203 3764ft 98kts
13-Dec-20 18:06 48.608755 -118.103747 207 4501ft 88kts
13-Dec-20 18:06 48.589755 -118.116264 207 5024ft 89kts
13-Dec-20 18:07 48.566530 -118.131009 207 5634ft 93kts
13-Dec-20 18:08 48.541967 -118.152412 220 6097ft 111kts
13-Dec-20 18:10 48.515969 -118.191991 234 6626ft 116kts
13-Dec-20 18:10 48.498508 -118.222399 234 7106ft 108kts
13-Dec-20 18:11 48.480134 -118.252834 234 7837ft 87kts
13-Dec-20 18:12 48.462699 -118.281439 239 8159ft 107kts
13-Dec-20 18:13 48.443706 -118.322027 240 8219ft 128kts
13-Dec-20 18:14 48.423073 -118.367054 240 8240ft 132kts
13-Dec-20 18:15 48.402391 -118.412320 240 8378ft 124kts
13-Dec-20 18:16 48.391324 -118.454653 257 8968ft 99kts
13-Dec-20 18:17 48.384709 -118.487784 257 9675ft 72kts
13-Dec-20 18:18 48.379007 -118.516837 257 10101ft 72kts
13-Dec-20 18:19 48.373428 -118.547744 257 10398ft 87kts
13-Dec-20 18:20 48.369936 -118.589978 257 10435ft 113kts
13-Dec-20 18:21 48.359104 -118.636481 254 10433ft 119kts
13-Dec-20 18:22 48.349145 -118.684663 254 10436ft 121kts
13-Dec-20 18:23 48.339597 -118.730841 254 10436ft 121kts
13-Dec-20 18:24 48.329620 -118.779142 254 10436ft 122kts
13-Dec-20 18:25 48.319491 -118.827856 254 10436ft 121kts
13-Dec-20 18:26 48.308995 -118.875826 254 10436ft 121kts
13-Dec-20 18:27 48.297853 -118.923791 254 10436ft 121kts
13-Dec-20 18:28 48.286165 -118.971136 254 10436ft 121kts
13-Dec-20 18:29 48.273834 -119.018219 254 10436ft 121kts
13-Dec-20 18:30 48.260938 -119.065068 254 10435ft 121kts
13-Dec-20 18:31 48.245490 -119.110585 244 10435ft 124kts
13-Dec-20 18:32 48.226193 -119.153736 244 10435ft 124kts
13-Dec-20 18:33 48.205383 -119.195593 237 10435ft 127kts
13-Dec-20 18:34 48.179343 -119.232480 232 10435ft 129kts
13-Dec-20 18:35 48.151207 -119.266817 225 10435ft 132kts
13-Dec-20 18:36 48.121471 -119.298799 225 10435ft 132kts
13-Dec-20 18:37 48.091706 -119.330915 227 10435ft 131kts
13-Dec-20 18:38 48.059231 -119.357872 220 10432ft 134kts
13-Dec-20 18:39 48.038382 -119.399308 247 10434ft 123kts
13-Dec-20 18:40 48.025848 -119.445850 263 10434ft 118kts
13-Dec-20 18:41 48.018877 -119.494228 264 10434ft 118kts
13-Dec-20 18:42 48.019813 -119.542466 275 10434ft 116kts
13-Dec-20 18:43 48.021030 -119.590793 275 10434ft 116kts
13-Dec-20 18:44 48.022259 -119.639128 275 10434ft 116kts
13-Dec-20 18:45 48.023447 -119.687630 275 10438ft 117kts
13-Dec-20 18:46 48.024641 -119.736382 275 10437ft 117kts
13-Dec-20 18:47 48.025850 -119.785254 275 10437ft 117kts
13-Dec-20 18:48 48.027070 -119.833906 275 10437ft 117kts
13-Dec-20 18:49 48.028304 -119.882700 275 10437ft 117kts
13-Dec-20 18:50 48.031067 -119.931046 278 10437ft 116kts
13-Dec-20 18:51 48.034440 -119.979338 281 10436ft 116kts
13-Dec-20 18:52 48.041292 -120.026552 285 10436ft 116kts
13-Dec-20 18:53 48.049259 -120.073416 285 10436ft 116kts
13-Dec-20 18:54 48.057207 -120.120088 285 10436ft 116kts
13-Dec-20 18:55 48.060240 -120.168436 276 10436ft 116kts
13-Dec-20 18:56 48.062209 -120.216827 276 10435ft 116kts
13-Dec-20 18:57 48.064195 -120.265416 276 10435ft 116kts
13-Dec-20 18:58 48.066077 -120.312076 276 10679ft 103kts
13-Dec-20 18:59 48.067643 -120.350054 276 11096ft 92kts
13-Dec-20 19:00 48.069110 -120.387890 275 11402ft 95kts
13-Dec-20 19:01 48.070753 -120.429382 275 11549ft 102kts
13-Dec-20 19:02 48.072608 -120.471998 275 11690ft 103kts
13-Dec-20 19:03 48.075810 -120.514574 279 11829ft 102kts
13-Dec-20 19:04 48.080334 -120.556770 281 11929ft 104kts
13-Dec-20 19:05 48.089956 -120.598807 294 11928ft 109kts
13-Dec-20 19:06 48.103876 -120.639600 294 11928ft 110kts
13-Dec-20 19:07 48.117839 -120.680739 293 11933ft 111kts
13-Dec-20 19:08 48.131784 -120.721957 293 11932ft 111kts
13-Dec-20 19:09 48.145787 -120.763313 293 11932ft 111kts
13-Dec-20 19:10 48.159777 -120.804629 293 11932ft 111kts
13-Dec-20 19:11 48.173753 -120.845876 293 11930ft 111kts
13-Dec-20 19:12 48.183613 -120.889735 285 11927ft 110kts
13-Dec-20 19:13 48.192452 -120.933069 285 12004ft 106kts
13-Dec-20 19:14 48.201380 -120.976388 285 11999ft 110kts
13-Dec-20 19:15 48.208922 -121.021224 275 11988ft 111kts
13-Dec-20 19:16 48.212255 -121.067890 275 11977ft 113kts
13-Dec-20 19:17 48.214723 -121.115484 271 11967ft 115kts
13-Dec-20 19:18 48.216237 -121.163903 271 11956ft 117kts
13-Dec-20 19:19 48.218079 -121.213063 271 11948ft 119kts
13-Dec-20 19:20 48.218499 -121.262808 268 11948ft 119kts
13-Dec-20 19:21 48.217783 -121.312347 268 11947ft 119kts
13-Dec-20 19:22 48.217810 -121.362040 278 11946ft 120kts
13-Dec-20 19:23 48.226488 -121.410416 282 11947ft 120kts
13-Dec-20 19:24 48.235106 -121.458824 282 11947ft 120kts
13-Dec-20 19:25 48.243735 -121.507243 282 11947ft 120kts
13-Dec-20 19:26 48.252379 -121.555703 282 11947ft 120kts
13-Dec-20 19:27 48.260997 -121.603969 282 11946ft 120kts
13-Dec-20 19:28 48.269674 -121.652478 281 11947ft 120kts
13-Dec-20 19:29 48.278265 -121.701122 281 11955ft 121kts
13-Dec-20 19:30 48.286493 -121.751292 281 11958ft 124kts
13-Dec-20 19:31 48.294290 -121.802144 279 11958ft 125kts
13-Dec-20 19:32 48.301308 -121.853466 279 11958ft 125kts
13-Dec-20 19:33 48.308325 -121.904699 279 11958ft 125kts
13-Dec-20 19:34 48.315349 -121.955901 279 11958ft 125kts
13-Dec-20 19:35 48.322376 -122.007054 279 11958ft 125kts
13-Dec-20 19:36 48.329971 -122.058264 280 11958ft 125kts
13-Dec-20 19:37 48.337337 -122.109266 279 11957ft 125kts
13-Dec-20 19:39 48.342832 -122.160819 270 11958ft 124kts
13-Dec-20 19:40 48.343244 -122.212958 270 11957ft 124kts
13-Dec-20 19:41 48.343632 -122.265036 270 11957ft 124kts
13-Dec-20 19:42 48.344030 -122.317150 270 11957ft 124kts
13-Dec-20 19:43 48.344422 -122.367582 270 11957ft 118kts
13-Dec-20 19:44 48.344820 -122.416837 270 11957ft 117kts
13-Dec-20 19:45 48.345223 -122.465706 270 11959ft 116kts
13-Dec-20 19:46 48.345634 -122.514517 270 11961ft 116kts
13-Dec-20 19:47 48.346071 -122.563185 269 11962ft 116kts
13-Dec-20 19:48 48.344389 -122.611848 260 11964ft 116kts
13-Dec-20 19:49 48.315998 -122.629414 176 11965ft 130kts
13-Dec-20 19:50 48.280867 -122.614304 162 11965ft 134kts
13-Dec-20 19:51 48.249802 -122.582134 149 11963ft 137kts
13-Dec-20 19:52 48.218332 -122.548134 153 11640ft 142kts
13-Dec-20 19:53 48.184831 -122.516372 153 11028ft 143kts
13-Dec-20 19:54 48.149877 -122.484938 153 10321ft 151kts
13-Dec-20 19:54 48.119329 -122.458324 153 9692ft 153kts
13-Dec-20 19:56 48.076872 -122.422118 153 8970ft 148kts
13-Dec-20 19:56 48.047010 -122.396967 153 8469ft 147kts
13-Dec-20 19:58 48.005968 -122.361068 148 7768ft 146kts
13-Dec-20 19:58 47.977785 -122.333105 148 7268ft 145kts
13-Dec-20 20:00 47.937860 -122.296390 167 6565ft 143kts
13-Dec-20 20:00 47.905453 -122.300760 194 6068ft 140kts
13-Dec-20 20:01 47.868187 -122.313130 195 5597ft 135kts
13-Dec-20 20:02 47.830623 -122.312489 179 5139ft 135kts
13-Dec-20 20:03 47.793139 -122.312743 183 4684ft 134kts
13-Dec-20 20:04 47.755363 -122.315680 183 4232ft 138kts
13-Dec-20 20:05 47.718884 -122.319090 181 3787ft 127kts
13-Dec-20 20:06 47.682390 -122.320544 181 3484ft 135kts
13-Dec-20 20:07 47.644620 -122.320069 175 3185ft 136kts
13-Dec-20 20:08 47.606625 -122.316870 180 2886ft 137kts
13-Dec-20 20:09 47.569441 -122.316867 180 2586ft 130kts
13-Dec-20 20:10 47.534429 -122.317908 181 2247ft 114kts
13-Dec-20 20:11 47.506447 -122.318193 178 1417ft 92kts
13-Dec-20 20:12 47.482067 -122.318149 178 701ft 82kts
13-Dec-20 20:13 47.459743 -122.317945 179 329ft 73kts
13-Dec-20 20:14 47.447617 -122.316401 149 370ft 4kts
13-Dec-20 20:15 47.446471 -122.314150 120 377ft 17kts
13-Dec-20 20:16 47.439973 -122.313648 182 356ft 18kts
13-Dec-20 20:17 47.438547 -122.314946 260 347ft 0kts
13-Dec-20 20:18 47.438547 -122.314946 260 347ft 0kts
13-Dec-20 20:19 47.438547 -122.314946 260 347ft 0kts
13-Dec-20 20:20 47.438547 -122.314946 260 347ft 0kts
13-Dec-20 20:21 47.438547 -122.314946 260 347ft 0kts
13-Dec-20 20:22 47.438547 -122.314946 260 347ft 0kts
13-Dec-20 20:23 47.438547 -122.314946 260 347ft 0kts
13-Dec-20 20:24 47.438547 -122.314946 260 347ft 0kts
13-Dec-20 20:25 47.438547 -122.314946 260 347ft 0kts
13-Dec-20 20:26 47.438547 -122.314946 260 347ft 0kts
13-Dec-20 20:27 47.438547 -122.314946 260 347ft 0kts
13-Dec-20 20:28 47.438547 -122.314946 260 347ft 0kts

Navigation Log

Ident Type
Flight plan parsing failed, navigation log unavailable